Roselle, Iowa
Current Conditions -  °F | °C
As of 8:35 AM on Thursday 27 Nov 2014 (Local Time) from KCIN Reporting Station
Clear Clear  
Wind Chill: -15°   Ceiling: Unl
Heat Index:   Visibility: 10mi
Dew Point: -9°   Wind: 8mph
Humidity: 66%   Direction: 350°N
Pressure: 30.51"   Gusts: NA
Location:  42.08°N, 94.8598°W
Report Text: KCIN 271435Z AUTO 35007KT 10SM CLR M18/M23 A3051 RMK AO2
Loading
Personal Weather Stations






























Interactive Weather Map New forecast layout! Learn more

10-Day Weather Forecast

Advertisements
Track Severe Weather on mobile